Site contains unofficial IBTrACS data. Visit the IBTrACS Website to access archived data.

1899 NOT_NAMED (1899076S18119)


IBTrACS version v04r00. Visit IBTrACS website for data access.
Please direct all questions to the IBTrACS Q and A forum

Storm track - Intensity - Wind Radii - Intensity Data - Source Data - All data

Summary Information

Storm ID 1899076S18119
Start Mar 16 12Z
Landfall Mar 19 03Z
End Mar 25 00Z
ATCF IDs
Track status Best track data.

Storm track plot

Map of storm track

Intensity plots

No Intensity information for this storm


Radial wind information

No radial wind information for this storm


Position and Intensity Table

BASIN ISO_TIME_________ NATURE LAT LON
degrees north degrees east
SI 1899-03-16 12:00:00 NR -18.30 119.30
SI 15:00:00 NR -18.43 119.18
SI 18:00:00 NR -18.56 119.07
SI 21:00:00 NR -18.69 118.97
SI 1899-03-17 00:00:00 NR -18.80 118.90
SI 03:00:00 NR -18.90 118.85
SI 06:00:00 NR -19.00 118.83
SI 09:00:00 NR -19.10 118.81
SI 12:00:00 NR -19.20 118.80
SI 15:00:00 NR -19.33 118.78
SI 18:00:00 NR -19.46 118.75
SI 21:00:00 NR -19.59 118.73
SI 1899-03-18 00:00:00 NR -19.70 118.70
SI 03:00:00 NR -19.79 118.68
SI 06:00:00 NR -19.86 118.66
SI 09:00:00 NR -19.93 118.63
SI 12:00:00 NR -20.00 118.60
SI 15:00:00 NR -20.07 118.56
SI 18:00:00 NR -20.15 118.51
SI 21:00:00 NR -20.22 118.46
SI 1899-03-19 00:00:00 NR -20.30 118.40
SI 03:00:00 NR -20.37 118.33
SI 06:00:00 NR -20.44 118.26
SI 09:00:00 NR -20.52 118.18
SI 12:00:00 NR -20.60 118.10
SI 15:00:00 NR -20.70 118.03
SI 18:00:00 NR -20.80 117.96
SI 21:00:00 NR -20.90 117.89
SI 1899-03-20 00:00:00 NR -21.00 117.80
SI 03:00:00 NR -21.07 117.73
SI 06:00:00 NR -21.13 117.63
SI 09:00:00 NR -21.20 117.50
SI 12:00:00 NR -21.30 117.30
SI 15:00:00 NR -21.43 116.98
SI 18:00:00 NR -21.59 116.60
SI 21:00:00 NR -21.78 116.22
SI 1899-03-21 00:00:00 NR -22.00 115.90
SI 03:00:00 NR -22.25 115.69
SI 06:00:00 NR -22.52 115.54
SI 09:00:00 NR -22.81 115.45
SI 12:00:00 NR -23.10 115.40
SI 15:00:00 NR -23.38 115.37
SI 18:00:00 NR -23.66 115.39
SI 21:00:00 NR -23.93 115.44
SI 1899-03-22 00:00:00 NR -24.20 115.50
SI 03:00:00 NR -24.47 115.55
SI 06:00:00 NR -24.72 115.62
SI 09:00:00 NR -24.97 115.70
SI 12:00:00 NR -25.20 115.80
SI 15:00:00 NR -25.39 115.87
SI 18:00:00 NR -25.57 115.96
SI 21:00:00 NR -25.76 116.10
SI 1899-03-23 00:00:00 NR -26.00 116.30
SI 03:00:00 NR -26.30 116.58
SI 06:00:00 NR -26.65 116.94
SI 09:00:00 NR -27.02 117.35
SI 12:00:00 NR -27.40 117.80
SI 15:00:00 NR -27.70 118.11
SI 18:00:00 NR -28.03 118.47
SI 21:00:00 NR -28.41 119.00
SI 1899-03-24 00:00:00 NR -28.90 119.80
SI 03:00:00 NR -29.54 121.02
SI 06:00:00 NR -30.28 122.53
SI 09:00:00 NR -31.05 124.20
SI 12:00:00 NR -31.80 125.90
SI 15:00:00 NR -32.51 127.51
SI 18:00:00 NR -33.17 129.04
SI 21:00:00 NR -33.80 130.53
SI 1899-03-25 00:00:00 NR -34.40 132.00

Source Information

Agency Information
USA
TOKYO
CMA
HKO
NEWDELHI
REUNION
BOM
NADI
WELLINGTON
DS824
TD9636 cons_worldwide_trop_cyclone_18710101-19891231-006:Line=125
TD9635
NEUMANN
MLC

All available IBTrACS Data

SEASON BASIN SUBBASIN ISO_TIME_________ NATURE LAT LON DIST2LAND LANDFALL IFLAG USA SSHS TD9636 LAT TD9636 LON TD9636 STAGE STORM SPEED STORM DIR
Year degrees north degrees east km km 1 degrees north degrees east kts degrees
1899 SI WA 1899-03-16 12:00:00 NR -18.30 119.30 197 186 __________O___ -1 -18.30 119.30 7 3 220
1899 SI WA 15:00:00 NR -18.43 119.18 189 167 __________P___ -1 -18.43 119.18 7 3 220
1899 SI WA 18:00:00 NR -18.56 119.07 167 156 __________P___ -1 -18.56 119.07 7 3 218
1899 SI WA 21:00:00 NR -18.69 118.97 156 146 __________P___ -1 -18.69 118.97 7 3 214
1899 SI WA 1899-03-17 00:00:00 NR -18.80 118.90 146 135 __________O___ -1 -18.80 118.90 7 2 207
1899 SI WA 03:00:00 NR -18.90 118.85 135 126 __________P___ -1 -18.90 118.85 7 2 200
1899 SI WA 06:00:00 NR -19.00 118.83 126 116 __________P___ -1 -19.00 118.83 7 2 192
1899 SI WA 09:00:00 NR -19.10 118.81 116 105 __________P___ -1 -19.10 118.81 7 2 187
1899 SI WA 12:00:00 NR -19.20 118.80 105 94 __________O___ -1 -19.20 118.80 7 2 192
1899 SI WA 15:00:00 NR -19.33 118.78 94 74 __________P___ -1 -19.33 118.78 7 3 187
1899 SI WA 18:00:00 NR -19.46 118.75 74 69 __________P___ -1 -19.46 118.75 7 3 189
1899 SI WA 21:00:00 NR -19.59 118.73 69 61 __________P___ -1 -19.59 118.73 7 2 191
1899 SI WA 1899-03-18 00:00:00 NR -19.70 118.70 61 53 __________O___ -1 -19.70 118.70 7 2 193
1899 SI WA 03:00:00 NR -19.79 118.68 53 45 __________P___ -1 -19.79 118.68 7 2 191
1899 SI WA 06:00:00 NR -19.86 118.66 45 45 __________P___ -1 -19.86 118.66 7 2 194
1899 SI WA 09:00:00 NR -19.93 118.63 53 44 __________P___ -1 -19.93 118.63 7 1 204
1899 SI WA 12:00:00 NR -20.00 118.60 44 33 __________O___ -1 -20.00 118.60 7 2 206
1899 SI WA 15:00:00 NR -20.07 118.56 33 33 __________P___ -1 -20.07 118.56 7 2 207
1899 SI WA 18:00:00 NR -20.15 118.51 33 22 __________P___ -1 -20.15 118.51 7 2 212
1899 SI WA 21:00:00 NR -20.22 118.46 22 11 __________P___ -1 -20.22 118.46 7 2 214
1899 SI WA 1899-03-19 00:00:00 NR -20.30 118.40 11 0 __________O___ -1 -20.30 118.40 7 2 220
1899 SI WA 03:00:00 NR -20.37 118.33 0 0 __________P___ -1 -20.37 118.33 7 2 223
1899 SI WA 06:00:00 NR -20.44 118.26 0 0 __________P___ -1 -20.44 118.26 7 2 224
1899 SI WA 09:00:00 NR -20.52 118.18 0 0 __________P___ -1 -20.52 118.18 7 2 223
1899 SI WA 12:00:00 NR -20.60 118.10 0 0 __________O___ -1 -20.60 118.10 7 2 217
1899 SI WA 15:00:00 NR -20.70 118.03 0 0 __________P___ -1 -20.70 118.03 7 2 213
1899 SI WA 18:00:00 NR -20.80 117.96 0 0 __________P___ -1 -20.80 117.96 7 2 213
1899 SI WA 21:00:00 NR -20.90 117.89 0 0 __________P___ -1 -20.90 117.89 7 3 218
1899 SI WA 1899-03-20 00:00:00 NR -21.00 117.80 0 0 __________O___ -1 -21.00 117.80 7 2 223
1899 SI WA 03:00:00 NR -21.07 117.73 0 0 __________P___ -1 -21.07 117.73 7 2 231
1899 SI WA 06:00:00 NR -21.13 117.63 0 0 __________P___ -1 -21.13 117.63 7 3 238
1899 SI WA 09:00:00 NR -21.20 117.50 0 0 __________P___ -1 -21.20 117.50 7 4 241
1899 SI WA 12:00:00 NR -21.30 117.30 0 0 __________O___ -1 -21.30 117.30 7 5 244
1899 SI WA 15:00:00 NR -21.43 116.98 0 0 __________P___ -1 -21.43 116.98 7 7 246
1899 SI WA 18:00:00 NR -21.59 116.60 0 0 __________P___ -1 -21.59 116.60 7 8 244
1899 SI WA 21:00:00 NR -21.78 116.22 0 0 __________P___ -1 -21.78 116.22 7 8 238
1899 SI WA 1899-03-21 00:00:00 NR -22.00 115.90 0 0 __________O___ -1 -22.00 115.90 7 7 227
1899 SI WA 03:00:00 NR -22.25 115.69 0 0 __________P___ -1 -22.25 115.69 7 6 213
1899 SI WA 06:00:00 NR -22.52 115.54 0 0 __________P___ -1 -22.52 115.54 7 6 202
1899 SI WA 09:00:00 NR -22.81 115.45 0 0 __________P___ -1 -22.81 115.45 7 6 192
1899 SI WA 12:00:00 NR -23.10 115.40 0 0 __________O___ -1 -23.10 115.40 7 6 187
1899 SI WA 15:00:00 NR -23.38 115.37 0 0 __________P___ -1 -23.38 115.37 7 6 0
1899 SI WA 18:00:00 NR -23.66 115.39 0 0 __________P___ -1 -23.66 115.39 7 6 175
1899 SI WA 21:00:00 NR -23.93 115.44 0 0 __________P___ -1 -23.93 115.44 7 6 170
1899 SI WA 1899-03-22 00:00:00 NR -24.20 115.50 0 0 __________O___ -1 -24.20 115.50 7 5 169
1899 SI WA 03:00:00 NR -24.47 115.55 0 0 __________P___ -1 -24.47 115.55 7 5 168
1899 SI WA 06:00:00 NR -24.72 115.62 0 0 __________P___ -1 -24.72 115.62 7 5 165
1899 SI WA 09:00:00 NR -24.97 115.70 0 0 __________P___ -1 -24.97 115.70 7 5 161
1899 SI WA 12:00:00 NR -25.20 115.80 0 0 __________O___ -1 -25.20 115.80 7 5 160
1899 SI WA 15:00:00 NR -25.39 115.87 0 0 __________P___ -1 -25.39 115.87 7 4 158
1899 SI WA 18:00:00 NR -25.57 115.96 0 0 __________P___ -1 -25.57 115.96 7 4 152
1899 SI WA 21:00:00 NR -25.76 116.10 0 0 __________P___ -1 -25.76 116.10 7 5 145
1899 SI WA 1899-03-23 00:00:00 NR -26.00 116.30 0 0 __________O___ -1 -26.00 116.30 7 7 141
1899 SI WA 03:00:00 NR -26.30 116.58 0 0 __________P___ -1 -26.30 116.58 7 9 139
1899 SI WA 06:00:00 NR -26.65 116.94 0 0 __________P___ -1 -26.65 116.94 7 10 136
1899 SI WA 09:00:00 NR -27.02 117.35 0 0 __________P___ -1 -27.02 117.35 7 11 134
1899 SI WA 12:00:00 NR -27.40 117.80 0 0 __________O___ -1 -27.40 117.80 7 10 136
1899 SI WA 15:00:00 NR -27.70 118.11 0 0 __________P___ -1 -27.70 118.11 7 9 136
1899 SI WA 18:00:00 NR -28.03 118.47 0 0 __________P___ -1 -28.03 118.47 7 11 132
1899 SI WA 21:00:00 NR -28.41 119.00 0 0 __________P___ -1 -28.41 119.00 7 15 127
1899 SI WA 1899-03-24 00:00:00 NR -28.90 119.80 0 0 __________O___ -1 -28.90 119.80 7 21 123
1899 SI WA 03:00:00 NR -29.54 121.02 0 0 __________P___ -1 -29.54 121.02 7 27 120
1899 SI WA 06:00:00 NR -30.28 122.53 0 0 __________P___ -1 -30.28 122.53 7 31 119
1899 SI WA 09:00:00 NR -31.05 124.20 0 0 __________P___ -1 -31.05 124.20 7 33 118
1899 SI WA 12:00:00 NR -31.80 125.90 0 0 __________O___ -1 -31.80 125.90 7 32 117
1899 SI WA 15:00:00 NR -32.51 127.51 33 33 __________P___ -1 -32.51 127.51 7 30 117
1899 SI WA 18:00:00 NR -33.17 129.04 153 153 __________P___ -1 -33.17 129.04 7 28 117
1899 SI WA 21:00:00 NR -33.80 130.53 245 244 __________P___ -1 -33.80 130.53 7 27 117
1899 SI WA 1899-03-25 00:00:00 NR -34.40 132.00 248 __________O___ -1 -34.40 132.00 7 27 116